sensor_id;sensor_type;location;lat;lon;timestamp;P1;durP1;ratioP1;P2;durP2;ratioP2
64075;SDS011;50327;51.328;12.324;2023-03-11T00:00:31;2.45;;;1.27;;
64075;SDS011;50327;51.328;12.324;2023-03-11T00:02:59;1.20;;;0.90;;
64075;SDS011;50327;51.328;12.324;2023-03-11T00:05:29;1.52;;;1.15;;
64075;SDS011;50327;51.328;12.324;2023-03-11T00:07:57;3.30;;;1.55;;
64075;SDS011;50327;51.328;12.324;2023-03-11T00:10:24;3.17;;;1.73;;
64075;SDS011;50327;51.328;12.324;2023-03-11T00:12:55;1.90;;;1.15;;
64075;SDS011;50327;51.328;12.324;2023-03-11T00:15:21;1.90;;;1.27;;
64075;SDS011;50327;51.328;12.324;2023-03-11T00:17:47;2.05;;;1.27;;
64075;SDS011;50327;51.328;12.324;2023-03-11T00:20:18;2.50;;;1.45;;
64075;SDS011;50327;51.328;12.324;2023-03-11T00:22:51;3.38;;;1.95;;
64075;SDS011;50327;51.328;12.324;2023-03-11T00:25:18;4.13;;;2.13;;
64075;SDS011;50327;51.328;12.324;2023-03-11T00:27:45;3.67;;;1.92;;
64075;SDS011;50327;51.328;12.324;2023-03-11T00:30:11;3.58;;;2.05;;
64075;SDS011;50327;51.328;12.324;2023-03-11T00:32:38;4.00;;;2.15;;
64075;SDS011;50327;51.328;12.324;2023-03-11T00:35:03;3.50;;;1.83;;
64075;SDS011;50327;51.328;12.324;2023-03-11T00:37:29;3.95;;;2.22;;
64075;SDS011;50327;51.328;12.324;2023-03-11T00:39:55;4.10;;;2.38;;
64075;SDS011;50327;51.328;12.324;2023-03-11T00:42:20;4.13;;;2.38;;
64075;SDS011;50327;51.328;12.324;2023-03-11T00:44:46;4.45;;;2.63;;
64075;SDS011;50327;51.328;12.324;2023-03-11T00:47:12;3.53;;;2.17;;
64075;SDS011;50327;51.328;12.324;2023-03-11T00:49:37;7.18;;;3.20;;
64075;SDS011;50327;51.328;12.324;2023-03-11T00:52:03;5.63;;;2.88;;
64075;SDS011;50327;51.328;12.324;2023-03-11T00:54:29;3.92;;;2.05;;
64075;SDS011;50327;51.328;12.324;2023-03-11T00:56:54;7.43;;;3.85;;
64075;SDS011;50327;51.328;12.324;2023-03-11T00:59:20;6.53;;;3.22;;
64075;SDS011;50327;51.328;12.324;2023-03-11T01:01:45;7.30;;;3.83;;
64075;SDS011;50327;51.328;12.324;2023-03-11T01:04:10;10.05;;;4.32;;
64075;SDS011;50327;51.328;12.324;2023-03-11T01:06:36;7.45;;;4.25;;
64075;SDS011;50327;51.328;12.324;2023-03-11T01:09:02;9.18;;;4.63;;
64075;SDS011;50327;51.328;12.324;2023-03-11T01:11:29;8.90;;;4.60;;
64075;SDS011;50327;51.328;12.324;2023-03-11T01:13:55;7.32;;;3.90;;
64075;SDS011;50327;51.328;12.324;2023-03-11T01:16:20;11.27;;;5.95;;
64075;SDS011;50327;51.328;12.324;2023-03-11T01:18:46;10.18;;;5.82;;
64075;SDS011;50327;51.328;12.324;2023-03-11T01:21:11;9.68;;;5.97;;
64075;SDS011;50327;51.328;12.324;2023-03-11T01:23:37;11.35;;;5.80;;
64075;SDS011;50327;51.328;12.324;2023-03-11T01:26:03;8.77;;;4.55;;
64075;SDS011;50327;51.328;12.324;2023-03-11T01:28:29;9.13;;;6.20;;
64075;SDS011;50327;51.328;12.324;2023-03-11T01:30:54;7.55;;;4.45;;
64075;SDS011;50327;51.328;12.324;2023-03-11T01:33:19;9.50;;;5.25;;
64075;SDS011;50327;51.328;12.324;2023-03-11T01:35:46;9.52;;;5.30;;
64075;SDS011;50327;51.328;12.324;2023-03-11T01:38:13;7.22;;;3.97;;
64075;SDS011;50327;51.328;12.324;2023-03-11T01:40:41;8.27;;;4.78;;
64075;SDS011;50327;51.328;12.324;2023-03-11T01:48:28;10.57;;;5.47;;
64075;SDS011;50327;51.328;12.324;2023-03-11T01:50:54;5.28;;;2.90;;
64075;SDS011;50327;51.328;12.324;2023-03-11T01:53:21;6.18;;;3.47;;
64075;SDS011;50327;51.328;12.324;2023-03-11T01:55:48;5.55;;;3.20;;
64075;SDS011;50327;51.328;12.324;2023-03-11T01:58:14;8.75;;;5.35;;
64075;SDS011;50327;51.328;12.324;2023-03-11T02:00:43;9.18;;;4.47;;
64075;SDS011;50327;51.328;12.324;2023-03-11T02:03:10;7.63;;;3.83;;
64075;SDS011;50327;51.328;12.324;2023-03-11T02:05:42;8.38;;;4.38;;
64075;SDS011;50327;51.328;12.324;2023-03-11T02:08:08;9.15;;;4.78;;
64075;SDS011;50327;51.328;12.324;2023-03-11T02:10:36;8.15;;;4.93;;
64075;SDS011;50327;51.328;12.324;2023-03-11T02:13:02;8.15;;;4.40;;
64075;SDS011;50327;51.328;12.324;2023-03-11T02:15:28;14.43;;;7.88;;
64075;SDS011;50327;51.328;12.324;2023-03-11T02:17:53;8.65;;;5.43;;
64075;SDS011;50327;51.328;12.324;2023-03-11T02:22:48;9.40;;;5.75;;
64075;SDS011;50327;51.328;12.324;2023-03-11T02:28:02;14.00;;;6.28;;
64075;SDS011;50327;51.328;12.324;2023-03-11T02:30:31;10.65;;;6.22;;
64075;SDS011;50327;51.328;12.324;2023-03-11T02:32:59;8.70;;;4.60;;
64075;SDS011;50327;51.328;12.324;2023-03-11T02:35:25;12.55;;;5.55;;
64075;SDS011;50327;51.328;12.324;2023-03-11T02:37:51;9.77;;;4.97;;
64075;SDS011;50327;51.328;12.324;2023-03-11T02:42:46;11.07;;;5.93;;
64075;SDS011;50327;51.328;12.324;2023-03-11T02:45:13;8.52;;;3.78;;
64075;SDS011;50327;51.328;12.324;2023-03-11T02:47:40;12.25;;;6.07;;
64075;SDS011;50327;51.328;12.324;2023-03-11T02:50:06;9.25;;;4.65;;
64075;SDS011;50327;51.328;12.324;2023-03-11T02:52:35;10.15;;;5.85;;
64075;SDS011;50327;51.328;12.324;2023-03-11T02:55:00;10.68;;;5.90;;
64075;SDS011;50327;51.328;12.324;2023-03-11T02:57:26;15.48;;;6.50;;
64075;SDS011;50327;51.328;12.324;2023-03-11T02:59:51;9.57;;;5.22;;
64075;SDS011;50327;51.328;12.324;2023-03-11T03:02:17;7.55;;;4.28;;
64075;SDS011;50327;51.328;12.324;2023-03-11T03:04:43;10.15;;;5.20;;
64075;SDS011;50327;51.328;12.324;2023-03-11T03:07:08;10.95;;;5.72;;
64075;SDS011;50327;51.328;12.324;2023-03-11T03:09:34;10.40;;;5.32;;
64075;SDS011;50327;51.328;12.324;2023-03-11T03:12:00;11.45;;;5.78;;
64075;SDS011;50327;51.328;12.324;2023-03-11T03:14:26;12.10;;;6.40;;
64075;SDS011;50327;51.328;12.324;2023-03-11T03:16:51;11.32;;;6.75;;
64075;SDS011;50327;51.328;12.324;2023-03-11T03:19:17;10.10;;;6.18;;
64075;SDS011;50327;51.328;12.324;2023-03-11T03:21:43;10.82;;;5.63;;
64075;SDS011;50327;51.328;12.324;2023-03-11T03:24:08;12.75;;;6.28;;
64075;SDS011;50327;51.328;12.324;2023-03-11T03:26:34;8.77;;;5.35;;
64075;SDS011;50327;51.328;12.324;2023-03-11T03:29:03;8.98;;;5.30;;
64075;SDS011;50327;51.328;12.324;2023-03-11T03:31:29;11.27;;;5.53;;
64075;SDS011;50327;51.328;12.324;2023-03-11T03:33:54;8.77;;;4.88;;
64075;SDS011;50327;51.328;12.324;2023-03-11T03:36:22;9.70;;;5.32;;
64075;SDS011;50327;51.328;12.324;2023-03-11T03:38:52;10.25;;;5.30;;
64075;SDS011;50327;51.328;12.324;2023-03-11T03:41:18;12.48;;;5.65;;
64075;SDS011;50327;51.328;12.324;2023-03-11T03:43:43;11.35;;;5.10;;
64075;SDS011;50327;51.328;12.324;2023-03-11T03:46:09;11.73;;;6.35;;
64075;SDS011;50327;51.328;12.324;2023-03-11T03:48:34;11.07;;;6.20;;
64075;SDS011;50327;51.328;12.324;2023-03-11T03:51:07;8.88;;;4.97;;
64075;SDS011;50327;51.328;12.324;2023-03-11T03:53:34;9.35;;;5.45;;
64075;SDS011;50327;51.328;12.324;2023-03-11T03:56:01;10.60;;;5.72;;
64075;SDS011;50327;51.328;12.324;2023-03-11T03:58:27;12.27;;;6.40;;
64075;SDS011;50327;51.328;12.324;2023-03-11T04:00:56;10.68;;;5.78;;
64075;SDS011;50327;51.328;12.324;2023-03-11T04:03:22;14.82;;;7.93;;
64075;SDS011;50327;51.328;12.324;2023-03-11T04:05:49;12.40;;;6.78;;
64075;SDS011;50327;51.328;12.324;2023-03-11T04:08:14;10.48;;;5.25;;
64075;SDS011;50327;51.328;12.324;2023-03-11T04:10:40;13.55;;;6.57;;
64075;SDS011;50327;51.328;12.324;2023-03-11T04:13:05;13.65;;;6.53;;
64075;SDS011;50327;51.328;12.324;2023-03-11T04:15:30;10.88;;;5.32;;
64075;SDS011;50327;51.328;12.324;2023-03-11T04:17:56;13.55;;;7.32;;
64075;SDS011;50327;51.328;12.324;2023-03-11T04:20:21;11.43;;;5.95;;
64075;SDS011;50327;51.328;12.324;2023-03-11T04:22:47;16.25;;;6.13;;
64075;SDS011;50327;51.328;12.324;2023-03-11T04:25:12;11.60;;;6.00;;
64075;SDS011;50327;51.328;12.324;2023-03-11T04:27:37;12.25;;;6.25;;
64075;SDS011;50327;51.328;12.324;2023-03-11T04:30:06;12.57;;;6.07;;
64075;SDS011;50327;51.328;12.324;2023-03-11T04:32:33;11.85;;;5.43;;
64075;SDS011;50327;51.328;12.324;2023-03-11T04:34:58;12.95;;;5.65;;
64075;SDS011;50327;51.328;12.324;2023-03-11T04:37:26;11.40;;;5.88;;
64075;SDS011;50327;51.328;12.324;2023-03-11T04:39:52;12.40;;;5.05;;
64075;SDS011;50327;51.328;12.324;2023-03-11T04:42:18;9.13;;;5.00;;
64075;SDS011;50327;51.328;12.324;2023-03-11T04:44:43;6.97;;;3.47;;
64075;SDS011;50327;51.328;12.324;2023-03-11T04:47:08;9.68;;;5.20;;
64075;SDS011;50327;51.328;12.324;2023-03-11T04:49:34;9.02;;;5.40;;
64075;SDS011;50327;51.328;12.324;2023-03-11T04:52:00;6.88;;;4.22;;
64075;SDS011;50327;51.328;12.324;2023-03-11T04:54:25;9.98;;;5.03;;
64075;SDS011;50327;51.328;12.324;2023-03-11T04:56:51;11.70;;;6.50;;
64075;SDS011;50327;51.328;12.324;2023-03-11T04:59:16;11.02;;;5.80;;
64075;SDS011;50327;51.328;12.324;2023-03-11T05:01:42;10.55;;;5.28;;
64075;SDS011;50327;51.328;12.324;2023-03-11T05:04:07;10.80;;;5.65;;
64075;SDS011;50327;51.328;12.324;2023-03-11T05:06:32;11.23;;;6.55;;
64075;SDS011;50327;51.328;12.324;2023-03-11T05:08:58;9.15;;;5.25;;
64075;SDS011;50327;51.328;12.324;2023-03-11T05:11:23;12.27;;;6.50;;
64075;SDS011;50327;51.328;12.324;2023-03-11T05:13:49;14.98;;;7.57;;
64075;SDS011;50327;51.328;12.324;2023-03-11T05:16:15;11.98;;;6.15;;
64075;SDS011;50327;51.328;12.324;2023-03-11T05:18:41;13.85;;;6.07;;
64075;SDS011;50327;51.328;12.324;2023-03-11T05:21:06;9.98;;;5.35;;
64075;SDS011;50327;51.328;12.324;2023-03-11T05:23:31;13.90;;;6.90;;
64075;SDS011;50327;51.328;12.324;2023-03-11T05:25:57;12.30;;;6.90;;
64075;SDS011;50327;51.328;12.324;2023-03-11T05:28:22;15.85;;;7.03;;
64075;SDS011;50327;51.328;12.324;2023-03-11T05:30:47;11.40;;;6.40;;
64075;SDS011;50327;51.328;12.324;2023-03-11T05:33:13;13.50;;;6.60;;
64075;SDS011;50327;51.328;12.324;2023-03-11T05:35:38;15.70;;;7.35;;
64075;SDS011;50327;51.328;12.324;2023-03-11T05:38:04;13.52;;;6.47;;
64075;SDS011;50327;51.328;12.324;2023-03-11T05:40:29;14.15;;;6.90;;
64075;SDS011;50327;51.328;12.324;2023-03-11T05:42:55;16.52;;;7.13;;
64075;SDS011;50327;51.328;12.324;2023-03-11T05:45:20;14.27;;;6.07;;
64075;SDS011;50327;51.328;12.324;2023-03-11T05:47:45;12.02;;;6.47;;
64075;SDS011;50327;51.328;12.324;2023-03-11T05:50:11;12.00;;;6.05;;
64075;SDS011;50327;51.328;12.324;2023-03-11T05:52:36;14.23;;;6.47;;
64075;SDS011;50327;51.328;12.324;2023-03-11T05:55:02;10.25;;;5.75;;
64075;SDS011;50327;51.328;12.324;2023-03-11T05:57:28;14.48;;;6.85;;
64075;SDS011;50327;51.328;12.324;2023-03-11T05:59:53;16.27;;;6.85;;
64075;SDS011;50327;51.328;12.324;2023-03-11T06:02:18;15.90;;;5.45;;
64075;SDS011;50327;51.328;12.324;2023-03-11T06:04:45;13.90;;;4.78;;
64075;SDS011;50327;51.328;12.324;2023-03-11T06:07:10;10.05;;;5.65;;
64075;SDS011;50327;51.328;12.324;2023-03-11T06:09:37;10.05;;;4.57;;
64075;SDS011;50327;51.328;12.324;2023-03-11T06:12:03;9.73;;;4.78;;
64075;SDS011;50327;51.328;12.324;2023-03-11T06:14:28;10.25;;;4.57;;
64075;SDS011;50327;51.328;12.324;2023-03-11T06:16:56;10.27;;;4.65;;
64075;SDS011;50327;51.328;12.324;2023-03-11T06:19:22;6.88;;;4.07;;
64075;SDS011;50327;51.328;12.324;2023-03-11T06:21:51;10.13;;;4.30;;
64075;SDS011;50327;51.328;12.324;2023-03-11T06:24:16;7.53;;;3.58;;
64075;SDS011;50327;51.328;12.324;2023-03-11T06:26:42;8.75;;;5.03;;
64075;SDS011;50327;51.328;12.324;2023-03-11T06:29:10;9.85;;;4.63;;
64075;SDS011;50327;51.328;12.324;2023-03-11T06:31:37;9.20;;;4.03;;
64075;SDS011;50327;51.328;12.324;2023-03-11T06:34:04;11.63;;;5.22;;
64075;SDS011;50327;51.328;12.324;2023-03-11T06:36:30;10.82;;;5.20;;
64075;SDS011;50327;51.328;12.324;2023-03-11T06:38:56;17.52;;;5.28;;
64075;SDS011;50327;51.328;12.324;2023-03-11T06:41:22;10.00;;;5.25;;
64075;SDS011;50327;51.328;12.324;2023-03-11T06:43:47;8.80;;;4.07;;
64075;SDS011;50327;51.328;12.324;2023-03-11T06:46:17;10.10;;;4.78;;
64075;SDS011;50327;51.328;12.324;2023-03-11T06:48:44;9.80;;;4.30;;
64075;SDS011;50327;51.328;12.324;2023-03-11T06:51:11;12.80;;;5.15;;
64075;SDS011;50327;51.328;12.324;2023-03-11T06:53:37;14.65;;;5.25;;
64075;SDS011;50327;51.328;12.324;2023-03-11T06:58:32;6.57;;;3.42;;
64075;SDS011;50327;51.328;12.324;2023-03-11T07:01:00;9.20;;;4.40;;
64075;SDS011;50327;51.328;12.324;2023-03-11T07:03:31;8.93;;;4.60;;
64075;SDS011;50327;51.328;12.324;2023-03-11T07:05:57;10.63;;;4.43;;
64075;SDS011;50327;51.328;12.324;2023-03-11T07:08:23;7.10;;;3.85;;
64075;SDS011;50327;51.328;12.324;2023-03-11T07:11:05;9.75;;;4.70;;
64075;SDS011;50327;51.328;12.324;2023-03-11T07:13:36;7.97;;;4.18;;
64075;SDS011;50327;51.328;12.324;2023-03-11T07:16:03;7.25;;;4.03;;
64075;SDS011;50327;51.328;12.324;2023-03-11T07:18:30;5.88;;;3.05;;
64075;SDS011;50327;51.328;12.324;2023-03-11T07:20:56;10.10;;;4.65;;
64075;SDS011;50327;51.328;12.324;2023-03-11T07:23:21;6.50;;;4.05;;
64075;SDS011;50327;51.328;12.324;2023-03-11T07:25:47;8.38;;;4.35;;
64075;SDS011;50327;51.328;12.324;2023-03-11T07:28:13;9.57;;;5.25;;
64075;SDS011;50327;51.328;12.324;2023-03-11T07:30:38;10.52;;;3.90;;
64075;SDS011;50327;51.328;12.324;2023-03-11T07:33:04;10.43;;;4.70;;
64075;SDS011;50327;51.328;12.324;2023-03-11T07:35:30;9.30;;;4.55;;
64075;SDS011;50327;51.328;12.324;2023-03-11T07:37:55;8.57;;;4.07;;
64075;SDS011;50327;51.328;12.324;2023-03-11T07:40:20;11.13;;;3.78;;
64075;SDS011;50327;51.328;12.324;2023-03-11T07:42:46;6.43;;;3.42;;
64075;SDS011;50327;51.328;12.324;2023-03-11T07:45:11;10.07;;;4.20;;
64075;SDS011;50327;51.328;12.324;2023-03-11T07:47:37;7.32;;;4.00;;
64075;SDS011;50327;51.328;12.324;2023-03-11T07:50:05;9.50;;;3.47;;
64075;SDS011;50327;51.328;12.324;2023-03-11T07:52:30;9.45;;;3.63;;
64075;SDS011;50327;51.328;12.324;2023-03-11T07:54:57;9.93;;;3.97;;
64075;SDS011;50327;51.328;12.324;2023-03-11T07:57:23;7.43;;;3.92;;
64075;SDS011;50327;51.328;12.324;2023-03-11T07:59:48;9.38;;;3.85;;
64075;SDS011;50327;51.328;12.324;2023-03-11T08:02:14;17.27;;;4.50;;
64075;SDS011;50327;51.328;12.324;2023-03-11T08:04:39;7.47;;;3.75;;
64075;SDS011;50327;51.328;12.324;2023-03-11T08:07:05;9.57;;;4.68;;
64075;SDS011;50327;51.328;12.324;2023-03-11T08:09:30;8.38;;;4.43;;
64075;SDS011;50327;51.328;12.324;2023-03-11T08:11:56;19.20;;;5.18;;
64075;SDS011;50327;51.328;12.324;2023-03-11T08:14:24;7.93;;;3.80;;
64075;SDS011;50327;51.328;12.324;2023-03-11T08:16:50;12.60;;;3.80;;
64075;SDS011;50327;51.328;12.324;2023-03-11T08:19:16;8.13;;;3.95;;
64075;SDS011;50327;51.328;12.324;2023-03-11T08:21:41;11.60;;;4.20;;
64075;SDS011;50327;51.328;12.324;2023-03-11T08:24:06;11.70;;;4.93;;
64075;SDS011;50327;51.328;12.324;2023-03-11T08:26:34;8.40;;;4.15;;
64075;SDS011;50327;51.328;12.324;2023-03-11T08:28:59;9.02;;;4.72;;
64075;SDS011;50327;51.328;12.324;2023-03-11T08:31:26;5.88;;;3.13;;
64075;SDS011;50327;51.328;12.324;2023-03-11T08:33:55;10.43;;;4.20;;
64075;SDS011;50327;51.328;12.324;2023-03-11T08:36:24;7.93;;;3.88;;
64075;SDS011;50327;51.328;12.324;2023-03-11T08:38:50;7.70;;;3.00;;
64075;SDS011;50327;51.328;12.324;2023-03-11T08:41:16;7.05;;;3.10;;
64075;SDS011;50327;51.328;12.324;2023-03-11T08:43:41;9.38;;;3.38;;
64075;SDS011;50327;51.328;12.324;2023-03-11T08:46:09;6.72;;;3.08;;
64075;SDS011;50327;51.328;12.324;2023-03-11T08:48:58;7.30;;;3.47;;
64075;SDS011;50327;51.328;12.324;2023-03-11T08:51:24;6.32;;;3.42;;
64075;SDS011;50327;51.328;12.324;2023-03-11T08:53:50;9.27;;;3.80;;
64075;SDS011;50327;51.328;12.324;2023-03-11T08:56:16;17.27;;;3.80;;
64075;SDS011;50327;51.328;12.324;2023-03-11T08:58:42;7.68;;;3.67;;
64075;SDS011;50327;51.328;12.324;2023-03-11T09:01:07;5.70;;;3.63;;
64075;SDS011;50327;51.328;12.324;2023-03-11T09:03:34;8.85;;;3.38;;
64075;SDS011;50327;51.328;12.324;2023-03-11T09:06:02;5.60;;;2.92;;
64075;SDS011;50327;51.328;12.324;2023-03-11T09:10:55;7.32;;;3.30;;
64075;SDS011;50327;51.328;12.324;2023-03-11T09:13:20;5.93;;;3.17;;
64075;SDS011;50327;51.328;12.324;2023-03-11T09:15:49;10.65;;;3.38;;
64075;SDS011;50327;51.328;12.324;2023-03-11T09:18:15;14.75;;;4.70;;
64075;SDS011;50327;51.328;12.324;2023-03-11T09:20:42;13.90;;;4.22;;
64075;SDS011;50327;51.328;12.324;2023-03-11T09:23:08;6.03;;;3.20;;
64075;SDS011;50327;51.328;12.324;2023-03-11T09:25:35;5.03;;;2.90;;
64075;SDS011;50327;51.328;12.324;2023-03-11T09:28:01;5.82;;;3.22;;
64075;SDS011;50327;51.328;12.324;2023-03-11T09:30:27;8.35;;;3.88;;
64075;SDS011;50327;51.328;12.324;2023-03-11T09:32:52;6.95;;;3.42;;
64075;SDS011;50327;51.328;12.324;2023-03-11T09:35:17;6.03;;;3.20;;
64075;SDS011;50327;51.328;12.324;2023-03-11T09:37:43;5.80;;;2.58;;
64075;SDS011;50327;51.328;12.324;2023-03-11T09:40:10;9.25;;;2.75;;
64075;SDS011;50327;51.328;12.324;2023-03-11T09:42:44;7.47;;;3.22;;
64075;SDS011;50327;51.328;12.324;2023-03-11T09:45:17;7.57;;;3.25;;
64075;SDS011;50327;51.328;12.324;2023-03-11T09:50:59;7.40;;;3.42;;
64075;SDS011;50327;51.328;12.324;2023-03-11T09:53:42;5.10;;;3.00;;
64075;SDS011;50327;51.328;12.324;2023-03-11T09:56:12;7.75;;;3.70;;
64075;SDS011;50327;51.328;12.324;2023-03-11T10:03:47;9.40;;;3.45;;
64075;SDS011;50327;51.328;12.324;2023-03-11T10:06:21;8.55;;;3.33;;
64075;SDS011;50327;51.328;12.324;2023-03-11T10:16:52;5.07;;;2.70;;
64075;SDS011;50327;51.328;12.324;2023-03-11T10:25:03;7.55;;;2.72;;
64075;SDS011;50327;51.328;12.324;2023-03-11T10:27:42;9.35;;;3.25;;
64075;SDS011;50327;51.328;12.324;2023-03-11T10:35:48;6.43;;;3.35;;
64075;SDS011;50327;51.328;12.324;2023-03-11T10:38:21;4.10;;;2.30;;
64075;SDS011;50327;51.328;12.324;2023-03-11T10:44:18;6.70;;;3.05;;
64075;SDS011;50327;51.328;12.324;2023-03-11T10:46:48;6.28;;;2.97;;
64075;SDS011;50327;51.328;12.324;2023-03-11T10:49:14;6.88;;;3.20;;
64075;SDS011;50327;51.328;12.324;2023-03-11T10:51:44;6.47;;;3.10;;
64075;SDS011;50327;51.328;12.324;2023-03-11T10:54:30;11.35;;;3.45;;
64075;SDS011;50327;51.328;12.324;2023-03-11T10:57:00;6.47;;;3.13;;
64075;SDS011;50327;51.328;12.324;2023-03-11T10:59:44;7.80;;;3.72;;
64075;SDS011;50327;51.328;12.324;2023-03-11T11:07:40;6.82;;;3.08;;
64075;SDS011;50327;51.328;12.324;2023-03-11T11:12:54;6.85;;;2.83;;
64075;SDS011;50327;51.328;12.324;2023-03-11T11:17:48;7.72;;;3.75;;
64075;SDS011;50327;51.328;12.324;2023-03-11T11:20:15;11.57;;;3.17;;
64075;SDS011;50327;51.328;12.324;2023-03-11T11:22:46;7.78;;;3.13;;
64075;SDS011;50327;51.328;12.324;2023-03-11T11:28:18;8.13;;;3.45;;
64075;SDS011;50327;51.328;12.324;2023-03-11T11:30:51;5.35;;;2.90;;
64075;SDS011;50327;51.328;12.324;2023-03-11T11:33:23;7.05;;;3.33;;
64075;SDS011;50327;51.328;12.324;2023-03-11T11:38:17;7.50;;;2.80;;
64075;SDS011;50327;51.328;12.324;2023-03-11T11:40:48;7.43;;;3.28;;
64075;SDS011;50327;51.328;12.324;2023-03-11T11:43:15;6.93;;;3.42;;
64075;SDS011;50327;51.328;12.324;2023-03-11T11:45:54;10.15;;;2.65;;
64075;SDS011;50327;51.328;12.324;2023-03-11T11:48:25;5.45;;;2.72;;
64075;SDS011;50327;51.328;12.324;2023-03-11T11:51:02;7.28;;;3.63;;
64075;SDS011;50327;51.328;12.324;2023-03-11T11:53:40;6.85;;;2.80;;
64075;SDS011;50327;51.328;12.324;2023-03-11T11:56:10;6.85;;;3.33;;
64075;SDS011;50327;51.328;12.324;2023-03-11T11:58:36;5.60;;;2.67;;
64075;SDS011;50327;51.328;12.324;2023-03-11T12:01:15;7.32;;;3.17;;
64075;SDS011;50327;51.328;12.324;2023-03-11T12:22:30;4.60;;;2.72;;
64075;SDS011;50327;51.328;12.324;2023-03-11T12:28:22;7.72;;;2.70;;
64075;SDS011;50327;51.328;12.324;2023-03-11T12:30:58;3.95;;;2.28;;
64075;SDS011;50327;51.328;12.324;2023-03-11T12:33:44;4.88;;;2.70;;
64075;SDS011;50327;51.328;12.324;2023-03-11T12:36:24;8.60;;;2.85;;
64075;SDS011;50327;51.328;12.324;2023-03-11T12:38:55;8.73;;;2.92;;
64075;SDS011;50327;51.328;12.324;2023-03-11T12:41:32;6.03;;;3.15;;
64075;SDS011;50327;51.328;12.324;2023-03-11T12:49:18;9.35;;;3.28;;
64075;SDS011;50327;51.328;12.324;2023-03-11T13:05:28;7.13;;;3.78;;
64075;SDS011;50327;51.328;12.324;2023-03-11T13:10:55;5.72;;;3.08;;
64075;SDS011;50327;51.328;12.324;2023-03-11T13:18:41;7.28;;;3.47;;
64075;SDS011;50327;51.328;12.324;2023-03-11T13:23:51;8.80;;;3.47;;
64075;SDS011;50327;51.328;12.324;2023-03-11T13:28:55;6.97;;;3.10;;
64075;SDS011;50327;51.328;12.324;2023-03-11T13:40:14;11.90;;;3.15;;
64075;SDS011;50327;51.328;12.324;2023-03-11T13:42:50;6.20;;;3.03;;
64075;SDS011;50327;51.328;12.324;2023-03-11T13:45:24;5.70;;;3.65;;
64075;SDS011;50327;51.328;12.324;2023-03-11T13:47:58;6.72;;;3.22;;
64075;SDS011;50327;51.328;12.324;2023-03-11T13:50:47;10.45;;;3.70;;
64075;SDS011;50327;51.328;12.324;2023-03-11T13:53:18;6.57;;;2.75;;
64075;SDS011;50327;51.328;12.324;2023-03-11T13:55:46;7.15;;;3.25;;
64075;SDS011;50327;51.328;12.324;2023-03-11T13:58:23;5.50;;;2.92;;
64075;SDS011;50327;51.328;12.324;2023-03-11T14:03:20;7.00;;;3.10;;
64075;SDS011;50327;51.328;12.324;2023-03-11T14:08:21;6.05;;;2.97;;
64075;SDS011;50327;51.328;12.324;2023-03-11T14:10:55;6.35;;;2.67;;
64075;SDS011;50327;51.328;12.324;2023-03-11T14:13:23;8.02;;;3.08;;
64075;SDS011;50327;51.328;12.324;2023-03-11T14:18:35;6.88;;;2.97;;
64075;SDS011;50327;51.328;12.324;2023-03-11T14:21:27;5.22;;;2.70;;
64075;SDS011;50327;51.328;12.324;2023-03-11T14:23:55;6.25;;;2.85;;
64075;SDS011;50327;51.328;12.324;2023-03-11T14:26:21;8.75;;;2.70;;
64075;SDS011;50327;51.328;12.324;2023-03-11T14:28:51;4.68;;;2.45;;
64075;SDS011;50327;51.328;12.324;2023-03-11T14:31:28;5.25;;;2.50;;
64075;SDS011;50327;51.328;12.324;2023-03-11T14:34:00;4.05;;;2.13;;
64075;SDS011;50327;51.328;12.324;2023-03-11T14:41:53;3.30;;;1.98;;
64075;SDS011;50327;51.328;12.324;2023-03-11T14:44:22;3.50;;;2.00;;
64075;SDS011;50327;51.328;12.324;2023-03-11T14:46:50;3.35;;;1.83;;
64075;SDS011;50327;51.328;12.324;2023-03-11T14:49:20;7.57;;;2.15;;
64075;SDS011;50327;51.328;12.324;2023-03-11T14:51:54;4.30;;;2.00;;
64075;SDS011;50327;51.328;12.324;2023-03-11T14:54:25;6.93;;;2.70;;
64075;SDS011;50327;51.328;12.324;2023-03-11T14:57:04;5.85;;;2.30;;
64075;SDS011;50327;51.328;12.324;2023-03-11T14:59:38;5.57;;;2.40;;
64075;SDS011;50327;51.328;12.324;2023-03-11T15:05:02;6.85;;;2.10;;
64075;SDS011;50327;51.328;12.324;2023-03-11T15:07:34;4.22;;;1.70;;
64075;SDS011;50327;51.328;12.324;2023-03-11T15:10:01;6.50;;;2.20;;
64075;SDS011;50327;51.328;12.324;2023-03-11T15:12:33;3.80;;;1.77;;
64075;SDS011;50327;51.328;12.324;2023-03-11T15:15:26;3.45;;;1.63;;
64075;SDS011;50327;51.328;12.324;2023-03-11T15:17:53;4.72;;;1.75;;
64075;SDS011;50327;51.328;12.324;2023-03-11T15:20:25;7.07;;;2.20;;
64075;SDS011;50327;51.328;12.324;2023-03-11T15:22:55;3.25;;;1.63;;
64075;SDS011;50327;51.328;12.324;2023-03-11T15:25:27;3.60;;;1.58;;
64075;SDS011;50327;51.328;12.324;2023-03-11T15:27:54;2.55;;;1.48;;
64075;SDS011;50327;51.328;12.324;2023-03-11T15:30:22;5.13;;;1.75;;
64075;SDS011;50327;51.328;12.324;2023-03-11T15:32:53;6.70;;;2.17;;
64075;SDS011;50327;51.328;12.324;2023-03-11T15:35:27;4.22;;;1.77;;
64075;SDS011;50327;51.328;12.324;2023-03-11T15:38:10;5.13;;;1.77;;
64075;SDS011;50327;51.328;12.324;2023-03-11T15:40:49;5.50;;;1.77;;
64075;SDS011;50327;51.328;12.324;2023-03-11T15:45:52;4.03;;;1.92;;
64075;SDS011;50327;51.328;12.324;2023-03-11T15:48:19;6.20;;;2.03;;
64075;SDS011;50327;51.328;12.324;2023-03-11T15:50:52;5.53;;;2.40;;
64075;SDS011;50327;51.328;12.324;2023-03-11T15:53:19;6.95;;;2.38;;
64075;SDS011;50327;51.328;12.324;2023-03-11T15:55:45;9.38;;;1.83;;
64075;SDS011;50327;51.328;12.324;2023-03-11T15:58:13;6.53;;;1.92;;
64075;SDS011;50327;51.328;12.324;2023-03-11T16:00:41;9.20;;;2.42;;
64075;SDS011;50327;51.328;12.324;2023-03-11T16:03:10;6.10;;;1.90;;
64075;SDS011;50327;51.328;12.324;2023-03-11T16:05:36;2.70;;;1.45;;
64075;SDS011;50327;51.328;12.324;2023-03-11T16:08:01;4.43;;;1.80;;
64075;SDS011;50327;51.328;12.324;2023-03-11T16:10:27;6.70;;;1.58;;
64075;SDS011;50327;51.328;12.324;2023-03-11T16:12:52;3.42;;;1.90;;
64075;SDS011;50327;51.328;12.324;2023-03-11T16:15:23;2.67;;;1.42;;
64075;SDS011;50327;51.328;12.324;2023-03-11T16:17:57;6.50;;;1.85;;
64075;SDS011;50327;51.328;12.324;2023-03-11T16:20:25;7.32;;;2.03;;
64075;SDS011;50327;51.328;12.324;2023-03-11T16:22:54;3.42;;;1.60;;
64075;SDS011;50327;51.328;12.324;2023-03-11T16:25:24;3.90;;;1.67;;
64075;SDS011;50327;51.328;12.324;2023-03-11T16:27:53;4.65;;;1.73;;
64075;SDS011;50327;51.328;12.324;2023-03-11T16:30:20;5.38;;;1.50;;
64075;SDS011;50327;51.328;12.324;2023-03-11T16:32:46;2.28;;;1.38;;
64075;SDS011;50327;51.328;12.324;2023-03-11T16:35:12;4.03;;;1.58;;
64075;SDS011;50327;51.328;12.324;2023-03-11T16:37:37;1.95;;;1.17;;
64075;SDS011;50327;51.328;12.324;2023-03-11T16:40:04;6.15;;;2.58;;
64075;SDS011;50327;51.328;12.324;2023-03-11T16:42:31;3.25;;;1.25;;
64075;SDS011;50327;51.328;12.324;2023-03-11T16:44:57;6.32;;;1.83;;
64075;SDS011;50327;51.328;12.324;2023-03-11T16:47:22;2.83;;;1.17;;
64075;SDS011;50327;51.328;12.324;2023-03-11T16:49:47;5.82;;;1.63;;
64075;SDS011;50327;51.328;12.324;2023-03-11T16:52:17;3.17;;;1.52;;
64075;SDS011;50327;51.328;12.324;2023-03-11T16:54:44;4.97;;;1.50;;
64075;SDS011;50327;51.328;12.324;2023-03-11T16:57:10;4.60;;;1.63;;
64075;SDS011;50327;51.328;12.324;2023-03-11T16:59:36;5.80;;;1.83;;
64075;SDS011;50327;51.328;12.324;2023-03-11T17:02:01;4.85;;;1.70;;